Camp Dix, Kentucky
Current Conditions -  °F | °C
As of 6:30 AM on Thursday 27 Nov 2014 (Local Time) from KSYM Reporting Station
Overcast Overcast  
Wind Chill: 23°   Ceiling: 6000
Heat Index: 30°   Visibility: 7mi
Dew Point: 27°   Wind: 7mph
Humidity: 86%   Direction: 310°NW
Pressure: 30.14"   Gusts: NA
Location:  38.48°N, 83.29°W
Report Text: KSYM 271130Z AUTO 31006KT 7SM FEW027 BKN060 OVC070 M01/M03 A3014 RMK AO2
Loading
Personal Weather Stations






























Interactive Weather Map New forecast layout! Learn more

10-Day Weather Forecast

Advertisements
Track Severe Weather on mobile